sensor_id;sensor_type;location;lat;lon;timestamp;P1;durP1;ratioP1;P2;durP2;ratioP2
4434;SDS011;46552;52.150;8.428;2023-05-10T00:00:10;16.27;;;11.47;;
4434;SDS011;46552;52.150;8.428;2023-05-10T00:02:38;21.03;;;13.77;;
4434;SDS011;46552;52.150;8.428;2023-05-10T00:05:06;14.93;;;11.60;;
4434;SDS011;46552;52.150;8.428;2023-05-10T00:07:36;17.97;;;11.77;;
4434;SDS011;46552;52.150;8.428;2023-05-10T00:10:03;17.47;;;12.60;;
4434;SDS011;46552;52.150;8.428;2023-05-10T00:12:31;16.30;;;11.77;;
4434;SDS011;46552;52.150;8.428;2023-05-10T00:14:58;16.07;;;11.00;;
4434;SDS011;46552;52.150;8.428;2023-05-10T00:17:26;19.53;;;13.30;;
4434;SDS011;46552;52.150;8.428;2023-05-10T00:19:53;16.97;;;12.17;;
4434;SDS011;46552;52.150;8.428;2023-05-10T00:22:20;16.90;;;11.80;;
4434;SDS011;46552;52.150;8.428;2023-05-10T00:24:49;17.23;;;11.73;;
4434;SDS011;46552;52.150;8.428;2023-05-10T00:27:16;21.10;;;13.13;;
4434;SDS011;46552;52.150;8.428;2023-05-10T00:29:44;19.13;;;13.33;;
4434;SDS011;46552;52.150;8.428;2023-05-10T00:32:11;16.30;;;11.53;;
4434;SDS011;46552;52.150;8.428;2023-05-10T00:34:39;18.17;;;12.73;;
4434;SDS011;46552;52.150;8.428;2023-05-10T00:37:05;16.87;;;11.73;;
4434;SDS011;46552;52.150;8.428;2023-05-10T00:39:33;19.47;;;14.33;;
4434;SDS011;46552;52.150;8.428;2023-05-10T00:42:01;17.70;;;12.83;;
4434;SDS011;46552;52.150;8.428;2023-05-10T00:44:29;17.30;;;12.67;;
4434;SDS011;46552;52.150;8.428;2023-05-10T00:46:57;19.30;;;13.90;;
4434;SDS011;46552;52.150;8.428;2023-05-10T00:49:25;18.27;;;12.50;;
4434;SDS011;46552;52.150;8.428;2023-05-10T00:51:52;21.50;;;12.50;;
4434;SDS011;46552;52.150;8.428;2023-05-10T00:54:19;21.63;;;14.77;;
4434;SDS011;46552;52.150;8.428;2023-05-10T00:56:46;17.60;;;12.70;;
4434;SDS011;46552;52.150;8.428;2023-05-10T00:59:16;21.17;;;14.20;;
4434;SDS011;46552;52.150;8.428;2023-05-10T01:01:44;19.10;;;12.43;;
4434;SDS011;46552;52.150;8.428;2023-05-10T01:04:12;19.90;;;12.73;;
4434;SDS011;46552;52.150;8.428;2023-05-10T01:06:40;19.80;;;12.03;;
4434;SDS011;46552;52.150;8.428;2023-05-10T01:09:07;15.47;;;11.43;;
4434;SDS011;46552;52.150;8.428;2023-05-10T01:11:34;28.53;;;13.43;;
4434;SDS011;46552;52.150;8.428;2023-05-10T01:14:03;19.80;;;11.90;;
4434;SDS011;46552;52.150;8.428;2023-05-10T01:16:34;18.90;;;12.40;;
4434;SDS011;46552;52.150;8.428;2023-05-10T01:19:04;14.77;;;9.70;;
4434;SDS011;46552;52.150;8.428;2023-05-10T01:21:38;15.63;;;11.00;;
4434;SDS011;46552;52.150;8.428;2023-05-10T01:24:26;19.57;;;10.27;;
4434;SDS011;46552;52.150;8.428;2023-05-10T01:27:18;16.70;;;10.63;;
4434;SDS011;46552;52.150;8.428;2023-05-10T01:32:54;15.40;;;10.57;;
4434;SDS011;46552;52.150;8.428;2023-05-10T01:35:30;16.10;;;10.47;;
4434;SDS011;46552;52.150;8.428;2023-05-10T01:38:04;17.87;;;11.20;;
4434;SDS011;46552;52.150;8.428;2023-05-10T01:40:39;16.23;;;10.70;;
4434;SDS011;46552;52.150;8.428;2023-05-10T01:43:16;15.03;;;9.73;;
4434;SDS011;46552;52.150;8.428;2023-05-10T01:45:49;11.33;;;7.93;;
4434;SDS011;46552;52.150;8.428;2023-05-10T01:48:24;13.83;;;8.90;;
4434;SDS011;46552;52.150;8.428;2023-05-10T01:50:54;10.47;;;7.03;;
4434;SDS011;46552;52.150;8.428;2023-05-10T01:53:22;11.17;;;7.50;;
4434;SDS011;46552;52.150;8.428;2023-05-10T01:55:51;10.70;;;6.37;;
4434;SDS011;46552;52.150;8.428;2023-05-10T01:58:22;12.57;;;7.10;;
4434;SDS011;46552;52.150;8.428;2023-05-10T02:00:51;9.30;;;5.50;;
4434;SDS011;46552;52.150;8.428;2023-05-10T02:03:20;8.63;;;5.63;;
4434;SDS011;46552;52.150;8.428;2023-05-10T02:05:51;8.63;;;6.10;;
4434;SDS011;46552;52.150;8.428;2023-05-10T02:08:20;13.80;;;6.00;;
4434;SDS011;46552;52.150;8.428;2023-05-10T02:10:49;8.33;;;5.30;;
4434;SDS011;46552;52.150;8.428;2023-05-10T02:13:18;9.80;;;5.90;;
4434;SDS011;46552;52.150;8.428;2023-05-10T02:15:48;10.20;;;7.07;;
4434;SDS011;46552;52.150;8.428;2023-05-10T02:18:16;7.83;;;5.50;;
4434;SDS011;46552;52.150;8.428;2023-05-10T02:20:46;8.17;;;5.33;;
4434;SDS011;46552;52.150;8.428;2023-05-10T02:23:15;8.50;;;6.10;;
4434;SDS011;46552;52.150;8.428;2023-05-10T02:25:43;10.97;;;5.97;;
4434;SDS011;46552;52.150;8.428;2023-05-10T02:28:13;10.60;;;6.83;;
4434;SDS011;46552;52.150;8.428;2023-05-10T02:30:41;8.60;;;5.47;;
4434;SDS011;46552;52.150;8.428;2023-05-10T02:33:09;11.13;;;6.43;;
4434;SDS011;46552;52.150;8.428;2023-05-10T02:35:38;11.40;;;6.57;;
4434;SDS011;46552;52.150;8.428;2023-05-10T02:38:07;9.80;;;6.93;;
4434;SDS011;46552;52.150;8.428;2023-05-10T02:40:35;14.20;;;7.87;;
4434;SDS011;46552;52.150;8.428;2023-05-10T02:43:04;8.77;;;7.00;;
4434;SDS011;46552;52.150;8.428;2023-05-10T02:45:33;9.90;;;7.27;;
4434;SDS011;46552;52.150;8.428;2023-05-10T02:48:04;9.53;;;6.50;;
4434;SDS011;46552;52.150;8.428;2023-05-10T02:50:32;11.03;;;6.80;;
4434;SDS011;46552;52.150;8.428;2023-05-10T02:53:00;11.63;;;6.87;;
4434;SDS011;46552;52.150;8.428;2023-05-10T02:55:37;10.60;;;7.40;;
4434;SDS011;46552;52.150;8.428;2023-05-10T02:58:06;12.00;;;7.00;;
4434;SDS011;46552;52.150;8.428;2023-05-10T03:00:35;11.60;;;7.20;;
4434;SDS011;46552;52.150;8.428;2023-05-10T03:03:02;12.73;;;7.90;;
4434;SDS011;46552;52.150;8.428;2023-05-10T03:05:29;13.03;;;7.00;;
4434;SDS011;46552;52.150;8.428;2023-05-10T03:07:57;11.90;;;6.83;;
4434;SDS011;46552;52.150;8.428;2023-05-10T03:10:27;10.57;;;7.00;;
4434;SDS011;46552;52.150;8.428;2023-05-10T03:13:05;10.30;;;7.20;;
4434;SDS011;46552;52.150;8.428;2023-05-10T03:15:37;12.57;;;7.87;;
4434;SDS011;46552;52.150;8.428;2023-05-10T03:18:15;10.60;;;7.33;;
4434;SDS011;46552;52.150;8.428;2023-05-10T03:20:47;11.00;;;7.93;;
4434;SDS011;46552;52.150;8.428;2023-05-10T03:23:19;10.53;;;7.33;;
4434;SDS011;46552;52.150;8.428;2023-05-10T03:25:49;11.40;;;7.20;;
4434;SDS011;46552;52.150;8.428;2023-05-10T03:28:18;10.33;;;7.47;;
4434;SDS011;46552;52.150;8.428;2023-05-10T03:30:47;12.00;;;8.10;;
4434;SDS011;46552;52.150;8.428;2023-05-10T03:33:15;12.80;;;8.17;;
4434;SDS011;46552;52.150;8.428;2023-05-10T03:35:43;11.03;;;7.73;;
4434;SDS011;46552;52.150;8.428;2023-05-10T03:38:11;10.10;;;7.03;;
4434;SDS011;46552;52.150;8.428;2023-05-10T03:40:38;10.03;;;6.70;;
4434;SDS011;46552;52.150;8.428;2023-05-10T03:43:06;11.10;;;7.30;;
4434;SDS011;46552;52.150;8.428;2023-05-10T03:45:34;12.17;;;7.80;;
4434;SDS011;46552;52.150;8.428;2023-05-10T03:48:03;10.20;;;7.27;;
4434;SDS011;46552;52.150;8.428;2023-05-10T03:50:30;12.60;;;5.93;;
4434;SDS011;46552;52.150;8.428;2023-05-10T03:52:57;7.57;;;5.67;;
4434;SDS011;46552;52.150;8.428;2023-05-10T03:55:24;11.60;;;6.73;;
4434;SDS011;46552;52.150;8.428;2023-05-10T03:57:51;8.53;;;5.23;;
4434;SDS011;46552;52.150;8.428;2023-05-10T04:00:19;7.87;;;4.70;;
4434;SDS011;46552;52.150;8.428;2023-05-10T04:02:48;5.93;;;3.30;;
4434;SDS011;46552;52.150;8.428;2023-05-10T04:05:15;4.90;;;2.70;;
4434;SDS011;46552;52.150;8.428;2023-05-10T04:07:42;4.63;;;2.20;;
4434;SDS011;46552;52.150;8.428;2023-05-10T04:10:10;3.03;;;1.70;;
4434;SDS011;46552;52.150;8.428;2023-05-10T04:12:38;3.67;;;1.63;;
4434;SDS011;46552;52.150;8.428;2023-05-10T04:15:06;4.27;;;1.37;;
4434;SDS011;46552;52.150;8.428;2023-05-10T04:17:34;4.67;;;1.30;;
4434;SDS011;46552;52.150;8.428;2023-05-10T04:20:03;2.57;;;1.20;;
4434;SDS011;46552;52.150;8.428;2023-05-10T04:22:31;2.73;;;1.10;;
4434;SDS011;46552;52.150;8.428;2023-05-10T04:24:59;4.23;;;1.90;;
4434;SDS011;46552;52.150;8.428;2023-05-10T04:27:26;3.17;;;1.87;;
4434;SDS011;46552;52.150;8.428;2023-05-10T04:29:53;4.07;;;2.23;;
4434;SDS011;46552;52.150;8.428;2023-05-10T04:32:20;4.30;;;2.70;;
4434;SDS011;46552;52.150;8.428;2023-05-10T04:34:47;5.63;;;3.00;;
4434;SDS011;46552;52.150;8.428;2023-05-10T04:37:17;3.43;;;2.13;;
4434;SDS011;46552;52.150;8.428;2023-05-10T04:39:44;5.20;;;3.20;;
4434;SDS011;46552;52.150;8.428;2023-05-10T04:42:12;5.37;;;3.93;;
4434;SDS011;46552;52.150;8.428;2023-05-10T04:44:39;4.70;;;3.20;;
4434;SDS011;46552;52.150;8.428;2023-05-10T04:47:07;4.70;;;2.87;;
4434;SDS011;46552;52.150;8.428;2023-05-10T04:49:34;5.40;;;3.53;;
4434;SDS011;46552;52.150;8.428;2023-05-10T04:52:01;5.37;;;3.50;;
4434;SDS011;46552;52.150;8.428;2023-05-10T04:54:31;6.50;;;3.50;;
4434;SDS011;46552;52.150;8.428;2023-05-10T04:56:58;4.73;;;3.50;;
4434;SDS011;46552;52.150;8.428;2023-05-10T04:59:25;8.77;;;3.43;;
4434;SDS011;46552;52.150;8.428;2023-05-10T05:01:52;6.93;;;4.57;;
4434;SDS011;46552;52.150;8.428;2023-05-10T05:04:19;6.23;;;3.67;;
4434;SDS011;46552;52.150;8.428;2023-05-10T05:06:48;6.30;;;4.27;;
4434;SDS011;46552;52.150;8.428;2023-05-10T05:09:16;5.60;;;3.97;;
4434;SDS011;46552;52.150;8.428;2023-05-10T05:11:45;6.00;;;4.10;;
4434;SDS011;46552;52.150;8.428;2023-05-10T05:14:13;4.87;;;3.23;;
4434;SDS011;46552;52.150;8.428;2023-05-10T05:16:40;6.30;;;4.17;;
4434;SDS011;46552;52.150;8.428;2023-05-10T05:19:07;8.53;;;4.03;;
4434;SDS011;46552;52.150;8.428;2023-05-10T05:21:34;6.00;;;3.50;;
4434;SDS011;46552;52.150;8.428;2023-05-10T05:24:02;5.73;;;3.70;;
4434;SDS011;46552;52.150;8.428;2023-05-10T05:26:30;5.00;;;3.40;;
4434;SDS011;46552;52.150;8.428;2023-05-10T05:28:59;4.47;;;2.97;;
4434;SDS011;46552;52.150;8.428;2023-05-10T05:31:26;6.70;;;3.73;;
4434;SDS011;46552;52.150;8.428;2023-05-10T05:33:53;6.13;;;3.57;;
4434;SDS011;46552;52.150;8.428;2023-05-10T05:36:21;6.33;;;4.07;;
4434;SDS011;46552;52.150;8.428;2023-05-10T05:38:48;6.30;;;4.10;;
4434;SDS011;46552;52.150;8.428;2023-05-10T05:41:16;7.73;;;4.13;;
4434;SDS011;46552;52.150;8.428;2023-05-10T05:43:43;5.63;;;4.30;;
4434;SDS011;46552;52.150;8.428;2023-05-10T05:46:12;5.90;;;3.80;;
4434;SDS011;46552;52.150;8.428;2023-05-10T05:48:40;6.43;;;4.17;;
4434;SDS011;46552;52.150;8.428;2023-05-10T05:51:07;9.70;;;3.80;;
4434;SDS011;46552;52.150;8.428;2023-05-10T05:53:34;5.93;;;3.70;;
4434;SDS011;46552;52.150;8.428;2023-05-10T05:56:01;7.33;;;4.20;;
4434;SDS011;46552;52.150;8.428;2023-05-10T05:58:29;6.20;;;4.07;;
4434;SDS011;46552;52.150;8.428;2023-05-10T06:00:56;6.70;;;3.80;;
4434;SDS011;46552;52.150;8.428;2023-05-10T06:03:27;6.77;;;3.30;;
4434;SDS011;46552;52.150;8.428;2023-05-10T06:05:55;4.97;;;3.10;;
4434;SDS011;46552;52.150;8.428;2023-05-10T06:08:22;5.63;;;3.27;;
4434;SDS011;46552;52.150;8.428;2023-05-10T06:10:49;5.40;;;3.03;;
4434;SDS011;46552;52.150;8.428;2023-05-10T06:13:17;4.60;;;2.80;;
4434;SDS011;46552;52.150;8.428;2023-05-10T06:15:44;6.00;;;2.73;;
4434;SDS011;46552;52.150;8.428;2023-05-10T06:18:12;5.67;;;2.70;;
4434;SDS011;46552;52.150;8.428;2023-05-10T06:20:42;4.17;;;2.80;;
4434;SDS011;46552;52.150;8.428;2023-05-10T06:23:09;3.90;;;2.50;;
4434;SDS011;46552;52.150;8.428;2023-05-10T06:25:36;3.90;;;2.57;;
4434;SDS011;46552;52.150;8.428;2023-05-10T06:28:04;4.93;;;2.80;;
4434;SDS011;46552;52.150;8.428;2023-05-10T06:30:31;3.60;;;2.53;;
4434;SDS011;46552;52.150;8.428;2023-05-10T06:32:58;7.80;;;3.63;;
4434;SDS011;46552;52.150;8.428;2023-05-10T06:35:26;5.37;;;3.03;;
4434;SDS011;46552;52.150;8.428;2023-05-10T06:37:57;6.63;;;3.60;;
4434;SDS011;46552;52.150;8.428;2023-05-10T06:40:24;5.80;;;2.80;;
4434;SDS011;46552;52.150;8.428;2023-05-10T06:42:51;8.77;;;4.13;;
4434;SDS011;46552;52.150;8.428;2023-05-10T06:45:18;5.73;;;3.57;;
4434;SDS011;46552;52.150;8.428;2023-05-10T06:47:45;8.50;;;3.87;;
4434;SDS011;46552;52.150;8.428;2023-05-10T06:50:13;5.30;;;3.20;;
4434;SDS011;46552;52.150;8.428;2023-05-10T06:52:41;7.20;;;3.40;;
4434;SDS011;46552;52.150;8.428;2023-05-10T06:55:11;7.77;;;3.67;;
4434;SDS011;46552;52.150;8.428;2023-05-10T06:57:39;9.90;;;4.10;;
4434;SDS011;46552;52.150;8.428;2023-05-10T07:00:06;7.40;;;3.97;;
4434;SDS011;46552;52.150;8.428;2023-05-10T07:02:34;7.17;;;4.20;;
4434;SDS011;46552;52.150;8.428;2023-05-10T07:05:02;14.60;;;4.30;;
4434;SDS011;46552;52.150;8.428;2023-05-10T07:07:29;7.77;;;3.97;;
4434;SDS011;46552;52.150;8.428;2023-05-10T07:09:56;7.40;;;4.10;;
4434;SDS011;46552;52.150;8.428;2023-05-10T07:12:26;8.13;;;4.50;;
4434;SDS011;46552;52.150;8.428;2023-05-10T07:14:53;6.07;;;4.57;;
4434;SDS011;46552;52.150;8.428;2023-05-10T07:17:21;7.17;;;4.83;;
4434;SDS011;46552;52.150;8.428;2023-05-10T07:19:48;7.93;;;4.50;;
4434;SDS011;46552;52.150;8.428;2023-05-10T07:22:15;8.27;;;4.50;;
4434;SDS011;46552;52.150;8.428;2023-05-10T07:24:44;6.83;;;4.13;;
4434;SDS011;46552;52.150;8.428;2023-05-10T07:27:11;8.70;;;4.70;;
4434;SDS011;46552;52.150;8.428;2023-05-10T07:29:40;9.97;;;4.40;;
4434;SDS011;46552;52.150;8.428;2023-05-10T07:32:07;11.07;;;5.30;;
4434;SDS011;46552;52.150;8.428;2023-05-10T07:34:35;11.63;;;5.37;;
4434;SDS011;46552;52.150;8.428;2023-05-10T07:37:03;14.93;;;5.57;;
4434;SDS011;46552;52.150;8.428;2023-05-10T07:39:31;13.70;;;6.70;;
4434;SDS011;46552;52.150;8.428;2023-05-10T07:41:58;14.13;;;7.43;;
4434;SDS011;46552;52.150;8.428;2023-05-10T07:44:25;12.90;;;7.07;;
4434;SDS011;46552;52.150;8.428;2023-05-10T07:46:55;14.63;;;7.57;;
4434;SDS011;46552;52.150;8.428;2023-05-10T07:49:22;15.00;;;6.87;;
4434;SDS011;46552;52.150;8.428;2023-05-10T07:51:50;13.67;;;7.27;;
4434;SDS011;46552;52.150;8.428;2023-05-10T07:54:17;15.07;;;8.10;;
4434;SDS011;46552;52.150;8.428;2023-05-10T07:56:44;17.30;;;8.73;;
4434;SDS011;46552;52.150;8.428;2023-05-10T07:59:14;13.80;;;7.43;;
4434;SDS011;46552;52.150;8.428;2023-05-10T08:01:42;15.50;;;8.60;;
4434;SDS011;46552;52.150;8.428;2023-05-10T08:04:12;14.47;;;9.07;;
4434;SDS011;46552;52.150;8.428;2023-05-10T08:06:39;19.33;;;9.77;;
4434;SDS011;46552;52.150;8.428;2023-05-10T08:09:06;16.60;;;8.53;;
4434;SDS011;46552;52.150;8.428;2023-05-10T08:11:33;22.47;;;10.67;;
4434;SDS011;46552;52.150;8.428;2023-05-10T08:14:00;17.20;;;9.67;;
4434;SDS011;46552;52.150;8.428;2023-05-10T08:16:27;20.17;;;11.10;;
4434;SDS011;46552;52.150;8.428;2023-05-10T08:18:55;20.57;;;11.37;;
4434;SDS011;46552;52.150;8.428;2023-05-10T08:21:24;23.07;;;11.07;;
4434;SDS011;46552;52.150;8.428;2023-05-10T08:23:51;20.13;;;10.77;;
4434;SDS011;46552;52.150;8.428;2023-05-10T08:26:18;17.20;;;10.07;;
4434;SDS011;46552;52.150;8.428;2023-05-10T08:28:46;23.97;;;11.77;;
4434;SDS011;46552;52.150;8.428;2023-05-10T08:31:14;19.13;;;11.30;;
4434;SDS011;46552;52.150;8.428;2023-05-10T08:33:41;16.90;;;11.20;;
4434;SDS011;46552;52.150;8.428;2023-05-10T08:36:08;19.30;;;12.07;;
4434;SDS011;46552;52.150;8.428;2023-05-10T08:38:37;21.73;;;12.27;;
4434;SDS011;46552;52.150;8.428;2023-05-10T08:41:05;22.60;;;12.57;;
4434;SDS011;46552;52.150;8.428;2023-05-10T08:43:32;21.63;;;12.10;;
4434;SDS011;46552;52.150;8.428;2023-05-10T08:46:02;25.13;;;13.00;;
4434;SDS011;46552;52.150;8.428;2023-05-10T08:48:31;25.60;;;13.67;;
4434;SDS011;46552;52.150;8.428;2023-05-10T08:51:01;26.27;;;14.33;;
4434;SDS011;46552;52.150;8.428;2023-05-10T08:53:30;32.70;;;15.27;;
4434;SDS011;46552;52.150;8.428;2023-05-10T08:56:02;29.83;;;15.47;;
4434;SDS011;46552;52.150;8.428;2023-05-10T08:58:31;27.67;;;16.03;;
4434;SDS011;46552;52.150;8.428;2023-05-10T09:00:58;24.40;;;14.83;;
4434;SDS011;46552;52.150;8.428;2023-05-10T09:03:27;25.73;;;15.20;;
4434;SDS011;46552;52.150;8.428;2023-05-10T09:05:54;26.07;;;13.93;;
4434;SDS011;46552;52.150;8.428;2023-05-10T09:08:22;26.50;;;15.67;;
4434;SDS011;46552;52.150;8.428;2023-05-10T09:10:51;28.30;;;15.23;;
4434;SDS011;46552;52.150;8.428;2023-05-10T09:13:21;27.03;;;14.57;;
4434;SDS011;46552;52.150;8.428;2023-05-10T09:15:49;25.57;;;14.00;;
4434;SDS011;46552;52.150;8.428;2023-05-10T09:18:17;26.40;;;14.70;;
4434;SDS011;46552;52.150;8.428;2023-05-10T09:20:44;25.60;;;13.67;;
4434;SDS011;46552;52.150;8.428;2023-05-10T09:23:11;21.57;;;12.47;;
4434;SDS011;46552;52.150;8.428;2023-05-10T09:25:38;21.53;;;11.50;;
4434;SDS011;46552;52.150;8.428;2023-05-10T09:28:08;20.30;;;12.07;;
4434;SDS011;46552;52.150;8.428;2023-05-10T09:30:38;25.00;;;13.27;;
4434;SDS011;46552;52.150;8.428;2023-05-10T09:33:08;22.00;;;13.00;;
4434;SDS011;46552;52.150;8.428;2023-05-10T09:35:35;23.23;;;12.53;;
4434;SDS011;46552;52.150;8.428;2023-05-10T09:38:05;31.00;;;14.70;;
4434;SDS011;46552;52.150;8.428;2023-05-10T09:40:32;24.37;;;13.30;;
4434;SDS011;46552;52.150;8.428;2023-05-10T09:43:00;20.57;;;12.40;;
4434;SDS011;46552;52.150;8.428;2023-05-10T09:45:29;22.77;;;13.30;;
4434;SDS011;46552;52.150;8.428;2023-05-10T09:48:00;25.13;;;13.70;;
4434;SDS011;46552;52.150;8.428;2023-05-10T09:50:28;25.67;;;14.13;;
4434;SDS011;46552;52.150;8.428;2023-05-10T09:52:56;19.70;;;12.60;;
4434;SDS011;46552;52.150;8.428;2023-05-10T09:55:24;21.77;;;13.40;;
4434;SDS011;46552;52.150;8.428;2023-05-10T09:57:58;22.27;;;11.07;;
4434;SDS011;46552;52.150;8.428;2023-05-10T10:00:27;22.90;;;11.63;;
4434;SDS011;46552;52.150;8.428;2023-05-10T10:02:55;20.40;;;11.40;;
4434;SDS011;46552;52.150;8.428;2023-05-10T10:05:29;17.20;;;10.07;;
4434;SDS011;46552;52.150;8.428;2023-05-10T10:07:58;19.77;;;10.43;;
4434;SDS011;46552;52.150;8.428;2023-05-10T10:10:26;17.80;;;9.27;;
4434;SDS011;46552;52.150;8.428;2023-05-10T10:12:54;17.33;;;9.33;;
4434;SDS011;46552;52.150;8.428;2023-05-10T10:15:22;25.30;;;10.30;;
4434;SDS011;46552;52.150;8.428;2023-05-10T10:17:50;14.83;;;9.73;;
4434;SDS011;46552;52.150;8.428;2023-05-10T10:20:19;20.50;;;10.17;;
4434;SDS011;46552;52.150;8.428;2023-05-10T10:22:49;18.37;;;10.80;;
4434;SDS011;46552;52.150;8.428;2023-05-10T10:25:17;16.67;;;10.30;;
4434;SDS011;46552;52.150;8.428;2023-05-10T10:27:48;16.50;;;9.37;;
4434;SDS011;46552;52.150;8.428;2023-05-10T10:30:27;15.37;;;9.80;;
4434;SDS011;46552;52.150;8.428;2023-05-10T10:33:11;18.40;;;9.10;;
4434;SDS011;46552;52.150;8.428;2023-05-10T10:35:51;16.07;;;9.30;;
4434;SDS011;46552;52.150;8.428;2023-05-10T10:38:21;15.23;;;9.53;;
4434;SDS011;46552;52.150;8.428;2023-05-10T10:40:48;13.73;;;8.33;;
4434;SDS011;46552;52.150;8.428;2023-05-10T10:43:28;14.83;;;8.30;;
4434;SDS011;46552;52.150;8.428;2023-05-10T10:46:11;15.77;;;9.23;;
4434;SDS011;46552;52.150;8.428;2023-05-10T10:48:39;16.53;;;9.67;;
4434;SDS011;46552;52.150;8.428;2023-05-10T10:51:07;17.50;;;8.10;;
4434;SDS011;46552;52.150;8.428;2023-05-10T10:53:38;15.87;;;9.27;;
4434;SDS011;46552;52.150;8.428;2023-05-10T10:56:06;17.53;;;9.47;;
4434;SDS011;46552;52.150;8.428;2023-05-10T10:58:36;14.23;;;8.03;;
4434;SDS011;46552;52.150;8.428;2023-05-10T11:01:08;16.73;;;7.93;;
4434;SDS011;46552;52.150;8.428;2023-05-10T11:03:40;13.40;;;8.10;;
4434;SDS011;46552;52.150;8.428;2023-05-10T11:06:07;14.47;;;7.63;;
4434;SDS011;46552;52.150;8.428;2023-05-10T11:08:40;21.87;;;9.20;;
4434;SDS011;46552;52.150;8.428;2023-05-10T11:11:12;13.13;;;8.00;;
4434;SDS011;46552;52.150;8.428;2023-05-10T11:13:42;17.50;;;9.27;;
4434;SDS011;46552;52.150;8.428;2023-05-10T11:16:11;14.77;;;8.90;;
4434;SDS011;46552;52.150;8.428;2023-05-10T11:18:41;16.53;;;8.87;;
4434;SDS011;46552;52.150;8.428;2023-05-10T11:21:28;15.90;;;8.23;;
4434;SDS011;46552;52.150;8.428;2023-05-10T11:23:58;18.07;;;8.60;;
4434;SDS011;46552;52.150;8.428;2023-05-10T11:26:31;15.13;;;8.77;;
4434;SDS011;46552;52.150;8.428;2023-05-10T11:29:00;16.37;;;10.07;;
4434;SDS011;46552;52.150;8.428;2023-05-10T11:31:29;15.33;;;8.80;;
4434;SDS011;46552;52.150;8.428;2023-05-10T11:33:57;16.70;;;7.67;;
4434;SDS011;46552;52.150;8.428;2023-05-10T11:36:27;17.23;;;9.07;;
4434;SDS011;46552;52.150;8.428;2023-05-10T11:38:59;22.53;;;10.43;;
4434;SDS011;46552;52.150;8.428;2023-05-10T11:41:28;16.30;;;9.33;;
4434;SDS011;46552;52.150;8.428;2023-05-10T11:43:58;22.07;;;8.93;;
4434;SDS011;46552;52.150;8.428;2023-05-10T11:46:27;15.93;;;8.30;;
4434;SDS011;46552;52.150;8.428;2023-05-10T11:48:56;11.10;;;6.17;;
4434;SDS011;46552;52.150;8.428;2023-05-10T11:51:26;14.00;;;7.40;;
4434;SDS011;46552;52.150;8.428;2023-05-10T11:53:54;17.40;;;8.40;;
4434;SDS011;46552;52.150;8.428;2023-05-10T11:56:25;10.67;;;6.73;;
4434;SDS011;46552;52.150;8.428;2023-05-10T11:58:53;12.90;;;7.23;;
4434;SDS011;46552;52.150;8.428;2023-05-10T12:01:22;15.87;;;7.50;;
4434;SDS011;46552;52.150;8.428;2023-05-10T12:03:49;16.23;;;8.87;;
4434;SDS011;46552;52.150;8.428;2023-05-10T12:06:18;13.53;;;7.27;;
4434;SDS011;46552;52.150;8.428;2023-05-10T12:08:46;14.40;;;7.20;;
4434;SDS011;46552;52.150;8.428;2023-05-10T12:11:17;8.90;;;5.00;;
4434;SDS011;46552;52.150;8.428;2023-05-10T12:13:47;13.20;;;6.43;;
4434;SDS011;46552;52.150;8.428;2023-05-10T12:16:18;11.60;;;7.20;;
4434;SDS011;46552;52.150;8.428;2023-05-10T12:18:48;13.57;;;6.93;;
4434;SDS011;46552;52.150;8.428;2023-05-10T12:21:16;12.40;;;5.87;;
4434;SDS011;46552;52.150;8.428;2023-05-10T12:23:44;11.63;;;7.40;;
4434;SDS011;46552;52.150;8.428;2023-05-10T12:26:12;10.50;;;6.53;;
4434;SDS011;46552;52.150;8.428;2023-05-10T12:28:40;16.40;;;7.83;;
4434;SDS011;46552;52.150;8.428;2023-05-10T12:31:08;21.60;;;8.17;;
4434;SDS011;46552;52.150;8.428;2023-05-10T12:33:36;16.20;;;8.97;;
4434;SDS011;46552;52.150;8.428;2023-05-10T12:36:06;16.63;;;8.57;;
4434;SDS011;46552;52.150;8.428;2023-05-10T12:38:35;14.70;;;8.57;;
4434;SDS011;46552;52.150;8.428;2023-05-10T12:41:03;12.50;;;7.17;;
4434;SDS011;46552;52.150;8.428;2023-05-10T12:43:32;14.87;;;8.00;;
4434;SDS011;46552;52.150;8.428;2023-05-10T12:46:04;14.00;;;8.00;;
4434;SDS011;46552;52.150;8.428;2023-05-10T12:48:35;14.47;;;8.43;;
4434;SDS011;46552;52.150;8.428;2023-05-10T12:51:03;16.93;;;8.87;;
4434;SDS011;46552;52.150;8.428;2023-05-10T12:53:34;14.97;;;7.90;;
4434;SDS011;46552;52.150;8.428;2023-05-10T12:56:01;13.00;;;7.27;;
4434;SDS011;46552;52.150;8.428;2023-05-10T12:58:29;13.33;;;8.30;;
4434;SDS011;46552;52.150;8.428;2023-05-10T13:00:57;20.63;;;9.33;;
4434;SDS011;46552;52.150;8.428;2023-05-10T13:03:24;18.40;;;9.23;;
4434;SDS011;46552;52.150;8.428;2023-05-10T13:05:53;15.73;;;9.80;;
4434;SDS011;46552;52.150;8.428;2023-05-10T13:08:20;14.93;;;8.97;;
4434;SDS011;46552;52.150;8.428;2023-05-10T13:10:47;17.67;;;9.13;;
4434;SDS011;46552;52.150;8.428;2023-05-10T13:13:15;15.90;;;9.57;;
4434;SDS011;46552;52.150;8.428;2023-05-10T13:15:43;13.97;;;9.53;;
4434;SDS011;46552;52.150;8.428;2023-05-10T13:18:10;14.83;;;9.53;;
4434;SDS011;46552;52.150;8.428;2023-05-10T13:20:38;14.23;;;9.10;;
4434;SDS011;46552;52.150;8.428;2023-05-10T13:23:07;12.90;;;7.83;;
4434;SDS011;46552;52.150;8.428;2023-05-10T13:25:34;16.10;;;7.73;;
4434;SDS011;46552;52.150;8.428;2023-05-10T13:28:01;12.47;;;8.27;;
4434;SDS011;46552;52.150;8.428;2023-05-10T13:30:29;13.33;;;8.07;;
4434;SDS011;46552;52.150;8.428;2023-05-10T13:32:56;17.07;;;7.93;;
4434;SDS011;46552;52.150;8.428;2023-05-10T13:35:23;12.27;;;7.97;;
4434;SDS011;46552;52.150;8.428;2023-05-10T13:37:51;13.30;;;7.33;;
4434;SDS011;46552;52.150;8.428;2023-05-10T13:40:23;14.57;;;8.37;;
4434;SDS011;46552;52.150;8.428;2023-05-10T13:42:50;13.80;;;7.67;;
4434;SDS011;46552;52.150;8.428;2023-05-10T13:45:18;17.50;;;8.33;;
4434;SDS011;46552;52.150;8.428;2023-05-10T13:47:45;15.93;;;8.50;;
4434;SDS011;46552;52.150;8.428;2023-05-10T13:50:12;14.43;;;8.30;;
4434;SDS011;46552;52.150;8.428;2023-05-10T13:52:39;21.30;;;8.83;;
4434;SDS011;46552;52.150;8.428;2023-05-10T13:55:06;18.17;;;9.70;;
4434;SDS011;46552;52.150;8.428;2023-05-10T13:57:36;37.03;;;10.97;;
4434;SDS011;46552;52.150;8.428;2023-05-10T14:00:03;14.43;;;9.03;;
4434;SDS011;46552;52.150;8.428;2023-05-10T14:02:31;17.90;;;9.23;;
4434;SDS011;46552;52.150;8.428;2023-05-10T14:04:58;14.37;;;9.00;;
4434;SDS011;46552;52.150;8.428;2023-05-10T14:07:25;18.17;;;9.57;;
4434;SDS011;46552;52.150;8.428;2023-05-10T14:09:52;16.07;;;8.70;;
4434;SDS011;46552;52.150;8.428;2023-05-10T14:12:19;21.33;;;10.57;;
4434;SDS011;46552;52.150;8.428;2023-05-10T14:14:48;18.73;;;9.43;;
4434;SDS011;46552;52.150;8.428;2023-05-10T14:17:16;16.43;;;8.40;;
4434;SDS011;46552;52.150;8.428;2023-05-10T14:19:43;16.73;;;10.13;;
4434;SDS011;46552;52.150;8.428;2023-05-10T14:22:10;21.33;;;10.10;;
4434;SDS011;46552;52.150;8.428;2023-05-10T14:24:37;19.30;;;9.43;;
4434;SDS011;46552;52.150;8.428;2023-05-10T14:27:04;26.33;;;10.60;;
4434;SDS011;46552;52.150;8.428;2023-05-10T14:29:32;21.40;;;11.30;;
4434;SDS011;46552;52.150;8.428;2023-05-10T14:32:01;19.90;;;12.60;;
4434;SDS011;46552;52.150;8.428;2023-05-10T14:34:28;29.70;;;14.10;;
4434;SDS011;46552;52.150;8.428;2023-05-10T14:36:55;34.83;;;14.20;;
4434;SDS011;46552;52.150;8.428;2023-05-10T14:39:22;27.50;;;14.90;;
4434;SDS011;46552;52.150;8.428;2023-05-10T14:41:49;22.63;;;12.90;;
4434;SDS011;46552;52.150;8.428;2023-05-10T14:44:17;29.63;;;12.53;;
4434;SDS011;46552;52.150;8.428;2023-05-10T14:46:45;18.00;;;10.37;;
4434;SDS011;46552;52.150;8.428;2023-05-10T14:49:14;26.03;;;12.60;;
4434;SDS011;46552;52.150;8.428;2023-05-10T14:51:41;24.37;;;12.17;;
4434;SDS011;46552;52.150;8.428;2023-05-10T14:54:10;29.50;;;12.40;;
4434;SDS011;46552;52.150;8.428;2023-05-10T14:56:37;26.90;;;12.27;;
4434;SDS011;46552;52.150;8.428;2023-05-10T14:59:07;18.17;;;10.80;;